< < Back
Terminal Aerodrome Forecast


Current Version              Previous Versions:   1  2  3  4  5  6  7  8  9  

Terminal Aerodrome Forecast

288
FTUS44 KOHX 280500
TAFCSV
TAF
KCSV 280527Z 2806/2906 04004KT P6SM SKC
     FM281500 05010KT P6SM BKN250
     FM290100 05003KT P6SM OVC070=



Latest METAR

807
SAUS70 KWBC 280700 RRB
MTRCSV
METAR KCSV 280653Z AUTO 01003KT 10SM CLR 07/02 A2997 RMK AO2 SLP144
T00720017


USA.gov is the U.S. government's official web portal to all federal, state and local government web resources and services.